createdAt,value
2019-02-27T00:01:14.675Z,33.43
2019-02-27T00:03:42.679Z,33.47
2019-02-27T00:06:12.909Z,33.49
2019-02-27T00:08:42.096Z,33.52
2019-02-27T00:11:12.400Z,33.55
2019-02-27T00:13:41.448Z,33.61
2019-02-27T00:16:11.166Z,33.62
2019-02-27T00:18:40.510Z,33.64
2019-02-27T00:21:11.039Z,33.68
2019-02-27T00:23:40.116Z,33.71
2019-02-27T00:26:09.620Z,33.74
2019-02-27T00:28:38.586Z,33.79
2019-02-27T00:31:11.193Z,33.81
2019-02-27T00:33:38.065Z,33.84
2019-02-27T00:36:06.953Z,33.87
2019-02-27T00:38:35.893Z,33.89
2019-02-27T00:41:04.704Z,33.89
2019-02-27T00:43:33.607Z,33.94
2019-02-27T00:46:02.493Z,33.96
2019-02-27T00:48:31.263Z,34.00
2019-02-27T00:51:00.061Z,34.04
2019-02-27T00:53:28.956Z,34.08
2019-02-27T00:55:57.798Z,34.11
2019-02-27T00:58:27.019Z,34.13
2019-02-27T01:00:56.588Z,34.15
2019-02-27T01:03:26.255Z,34.19
2019-02-27T01:05:55.562Z,34.21
2019-02-27T01:08:25.135Z,34.22
2019-02-27T01:10:55.018Z,34.21
2019-02-27T01:13:23.966Z,34.28
2019-02-27T01:15:52.818Z,34.30
2019-02-27T01:18:21.716Z,34.34
2019-02-27T01:20:50.523Z,34.35
2019-02-27T01:23:19.362Z,34.35
2019-02-27T01:25:48.282Z,34.40
2019-02-27T01:28:17.239Z,34.42
2019-02-27T01:30:46.079Z,34.41
2019-02-27T01:33:14.982Z,34.43
2019-02-27T01:35:43.737Z,34.46
2019-02-27T01:38:12.591Z,34.49
2019-02-27T01:40:41.423Z,34.49
2019-02-27T01:43:10.333Z,34.52
2019-02-27T01:45:39.195Z,34.54
2019-02-27T01:48:09.178Z,34.55
2019-02-27T01:50:39.035Z,34.58
2019-02-27T01:53:10.961Z,34.57
2019-02-27T01:55:39.915Z,34.61
2019-02-27T01:58:09.502Z,34.62
2019-02-27T02:00:39.198Z,34.65
2019-02-27T02:03:08.092Z,34.68
2019-02-27T02:05:36.945Z,34.71
2019-02-27T02:08:06.386Z,34.72
2019-02-27T02:10:35.159Z,34.74
2019-02-27T02:13:14.934Z,34.76
2019-02-27T02:16:18.530Z,34.82
2019-02-27T02:19:14.122Z,34.82
2019-02-27T02:22:30.033Z,34.86
2019-02-27T02:25:37.843Z,34.88
2019-02-27T02:28:48.854Z,34.93
2019-02-27T02:31:32.017Z,34.95
2019-02-27T02:34:47.468Z,34.99
2019-02-27T02:37:54.491Z,35.04
2019-02-27T02:40:54.775Z,35.07
2019-02-27T02:44:03.891Z,35.12
2019-02-27T02:47:07.939Z,35.14
2019-02-27T02:50:24.241Z,35.15
2019-02-27T02:53:52.212Z,35.19
2019-02-27T02:56:37.606Z,35.16
2019-02-27T02:59:42.574Z,35.18
2019-02-27T03:02:57.524Z,35.13
2019-02-27T03:06:06.839Z,35.13
2019-02-27T03:09:44.065Z,35.12
2019-02-27T03:12:52.281Z,35.11
2019-02-27T03:15:42.456Z,35.11
2019-02-27T03:19:05.130Z,35.12
2019-02-27T03:22:15.444Z,35.16
2019-02-27T03:25:12.039Z,35.14
2019-02-27T03:28:30.917Z,35.16
2019-02-27T03:31:16.291Z,35.19
2019-02-27T03:34:13.662Z,35.21
2019-02-27T03:37:28.648Z,35.22
2019-02-27T03:40:23.618Z,35.25
2019-02-27T03:43:10.043Z,35.31
2019-02-27T03:46:06.192Z,35.31
2019-02-27T03:49:09.701Z,35.30
2019-02-27T03:52:28.647Z,35.36
2019-02-27T03:55:42.104Z,35.36
2019-02-27T03:59:07.659Z,35.36
2019-02-27T04:01:57.382Z,35.38
2019-02-27T04:04:40.404Z,35.33
2019-02-27T04:08:08.322Z,35.36
2019-02-27T04:10:35.858Z,35.34
2019-02-27T04:13:04.694Z,35.34
2019-02-27T04:15:33.655Z,35.36
2019-02-27T04:18:01.121Z,35.35
2019-02-27T04:20:29.889Z,35.37
2019-02-27T04:22:58.710Z,35.40
2019-02-27T04:25:31.138Z,35.41
2019-02-27T04:27:58.208Z,35.46
2019-02-27T04:30:26.983Z,35.48
2019-02-27T04:32:55.785Z,35.50
2019-02-27T04:35:24.679Z,35.49
2019-02-27T04:37:54.408Z,35.53
2019-02-27T04:40:23.675Z,35.56
2019-02-27T04:42:52.560Z,35.53
2019-02-27T04:45:21.399Z,35.58
2019-02-27T04:47:50.239Z,35.55
2019-02-27T04:50:19.025Z,35.55
2019-02-27T04:52:47.923Z,35.53
2019-02-27T04:55:16.693Z,35.51
2019-02-27T04:57:45.493Z,35.53
2019-02-27T05:00:14.376Z,35.52
2019-02-27T05:02:43.287Z,35.52
2019-02-27T05:05:12.213Z,35.49
2019-02-27T05:07:43.169Z,35.49
2019-02-27T05:10:12.047Z,35.47
2019-02-27T05:12:40.932Z,35.49
2019-02-27T05:15:09.748Z,35.46
2019-02-27T05:17:38.543Z,35.53
2019-02-27T05:20:11.601Z,35.53
2019-02-27T05:22:38.186Z,35.52
2019-02-27T05:25:07.030Z,35.52
2019-02-27T05:27:35.952Z,35.53
2019-02-27T05:30:05.292Z,35.57
2019-02-27T05:32:34.091Z,35.57
2019-02-27T05:35:02.926Z,35.60
2019-02-27T05:37:31.866Z,35.64
2019-02-27T05:40:00.594Z,35.62
2019-02-27T05:42:29.464Z,35.69
2019-02-27T05:44:58.250Z,35.72
2019-02-27T05:47:27.162Z,35.74
2019-02-27T05:49:57.927Z,35.75
2019-02-27T05:52:26.804Z,35.76
2019-02-27T05:54:55.601Z,35.77
2019-02-27T05:57:24.403Z,35.80
2019-02-27T05:59:53.186Z,35.76
2019-02-27T06:02:22.123Z,35.79
2019-02-27T06:04:50.961Z,35.76
2019-02-27T06:07:19.805Z,35.76
2019-02-27T06:09:49.066Z,35.74
2019-02-27T06:12:18.070Z,35.82
2019-02-27T06:14:46.883Z,35.88
2019-02-27T06:17:15.737Z,35.82
2019-02-27T06:19:44.671Z,35.83
2019-02-27T06:22:13.497Z,35.94
2019-02-27T06:24:43.132Z,35.92
2019-02-27T06:27:12.947Z,35.92
2019-02-27T06:29:41.770Z,35.90
2019-02-27T06:32:12.380Z,35.88
2019-02-27T06:34:41.248Z,35.97
2019-02-27T06:37:10.138Z,35.89
2019-02-27T06:39:39.038Z,35.97
2019-02-27T06:42:08.030Z,35.89
2019-02-27T06:44:39.915Z,35.86
2019-02-27T06:47:08.750Z,35.79
2019-02-27T06:49:37.660Z,35.72
2019-02-27T06:52:09.048Z,35.71
2019-02-27T06:54:37.805Z,35.66
2019-02-27T06:57:07.805Z,35.59
2019-02-27T06:59:38.547Z,35.52
2019-02-27T07:02:07.465Z,35.50
2019-02-27T07:04:36.446Z,35.42
2019-02-27T07:07:06.798Z,35.34
2019-02-27T07:09:35.753Z,34.97
2019-02-27T07:12:04.605Z,34.91
2019-02-27T07:14:33.554Z,34.62
2019-02-27T07:17:02.515Z,33.93
2019-02-27T07:19:31.294Z,33.50
2019-02-27T07:22:00.152Z,33.95
2019-02-27T07:24:30.553Z,33.83
2019-02-27T07:26:59.666Z,33.81
2019-02-27T07:29:28.465Z,33.73
2019-02-27T07:31:57.314Z,33.66
2019-02-27T07:34:26.197Z,33.56
2019-02-27T07:36:55.064Z,33.50
2019-02-27T07:39:23.906Z,33.52
2019-02-27T07:41:52.822Z,33.44
2019-02-27T07:44:21.777Z,33.49
2019-02-27T07:46:50.901Z,33.44
2019-02-27T07:49:19.992Z,33.38
2019-02-27T07:51:48.856Z,33.37
2019-02-27T07:54:17.675Z,33.38
2019-02-27T07:56:46.534Z,33.34
2019-02-27T07:59:15.385Z,33.32
2019-02-27T08:01:44.337Z,32.39
2019-02-27T08:04:13.146Z,25.84
2019-02-27T08:06:42.097Z,25.21
2019-02-27T08:09:11.365Z,25.73
2019-02-27T08:11:40.247Z,26.81
2019-02-27T08:14:09.109Z,27.96
2019-02-27T08:16:38.073Z,28.26
2019-02-27T08:19:08.975Z,29.16
2019-02-27T08:21:37.597Z,30.55
2019-02-27T08:24:07.548Z,31.66
2019-02-27T08:26:37.046Z,31.89
2019-02-27T08:29:05.849Z,31.68
2019-02-27T08:31:34.781Z,31.32
2019-02-27T08:34:03.595Z,31.21
2019-02-27T08:36:32.434Z,30.91
2019-02-27T08:39:01.316Z,30.69
2019-02-27T08:41:31.493Z,30.48
2019-02-27T08:44:00.780Z,30.20
2019-02-27T08:46:29.606Z,29.92
2019-02-27T08:48:58.454Z,29.72
2019-02-27T08:51:27.382Z,29.67
2019-02-27T08:53:58.984Z,29.50
2019-02-27T08:56:27.060Z,29.68
2019-02-27T08:58:56.075Z,29.81
2019-02-27T09:01:25.046Z,29.89
2019-02-27T09:03:53.866Z,29.92
2019-02-27T09:06:27.273Z,30.08
2019-02-27T09:08:53.552Z,29.60
2019-02-27T09:11:22.582Z,29.39
2019-02-27T09:13:51.645Z,29.80
2019-02-27T09:16:23.045Z,29.87
2019-02-27T09:18:51.240Z,29.93
2019-02-27T09:21:20.277Z,29.92
2019-02-27T09:23:49.101Z,29.89
2019-02-27T09:26:17.887Z,29.89
2019-02-27T09:28:46.773Z,29.89
2019-02-27T09:31:15.629Z,29.92
2019-02-27T09:33:44.609Z,29.93
2019-02-27T09:36:13.456Z,29.94
2019-02-27T09:38:42.249Z,29.95
2019-02-27T09:41:12.422Z,29.98
2019-02-27T09:43:41.963Z,30.00
2019-02-27T09:46:10.859Z,30.11
2019-02-27T09:48:40.203Z,30.31
2019-02-27T09:51:09.058Z,30.23
2019-02-27T09:53:37.894Z,30.24
2019-02-27T09:56:06.712Z,30.22
2019-02-27T09:58:36.064Z,30.22
2019-02-27T10:01:16.311Z,30.19
2019-02-27T10:03:45.347Z,30.13
2019-02-27T10:06:14.246Z,30.17
2019-02-27T10:08:43.100Z,30.15
2019-02-27T10:11:12.017Z,30.26
2019-02-27T10:13:40.914Z,30.36
2019-02-27T10:16:09.818Z,30.49
2019-02-27T10:18:38.842Z,30.55
2019-02-27T10:21:09.366Z,30.62
2019-02-27T10:23:38.221Z,30.55
2019-02-27T10:26:07.060Z,30.60
2019-02-27T10:28:39.703Z,30.62
2019-02-27T10:31:06.707Z,30.85
2019-02-27T10:33:35.625Z,30.81
2019-02-27T10:36:04.528Z,30.81
2019-02-27T10:38:33.433Z,30.93
2019-02-27T10:41:02.270Z,31.06
2019-02-27T10:43:31.317Z,31.05
2019-02-27T10:46:00.153Z,31.27
2019-02-27T10:48:29.224Z,31.09
2019-02-27T10:50:58.043Z,30.56
2019-02-27T10:53:27.926Z,30.23
2019-02-27T10:55:56.720Z,30.24
2019-02-27T10:58:25.816Z,30.54
2019-02-27T11:00:54.719Z,30.67
2019-02-27T11:03:26.414Z,30.73
2019-02-27T11:05:55.581Z,30.85
2019-02-27T11:08:28.920Z,30.87
2019-02-27T11:10:55.096Z,30.75
2019-02-27T11:13:24.204Z,30.86
2019-02-27T11:15:53.274Z,30.97
2019-02-27T11:18:22.180Z,30.95
2019-02-27T11:20:51.136Z,30.97
2019-02-27T11:23:19.982Z,30.98
2019-02-27T11:25:48.978Z,30.88
2019-02-27T11:28:17.866Z,30.66
2019-02-27T11:30:46.861Z,30.55
2019-02-27T11:33:25.047Z,30.58
2019-02-27T11:35:46.497Z,30.46
2019-02-27T11:38:15.529Z,30.23
2019-02-27T11:40:44.388Z,30.06
2019-02-27T11:43:13.129Z,29.96
2019-02-27T11:45:42.051Z,29.89
2019-02-27T11:48:10.937Z,29.63
2019-02-27T11:50:39.895Z,29.68
2019-02-27T11:53:08.783Z,29.29
2019-02-27T11:55:37.639Z,29.49
2019-02-27T11:58:06.473Z,29.57
2019-02-27T12:00:35.488Z,29.37
2019-02-27T12:03:04.465Z,29.49
2019-02-27T12:05:34.468Z,29.56
2019-02-27T12:08:03.465Z,29.46
2019-02-27T12:10:32.349Z,29.46
2019-02-27T12:13:01.742Z,29.36
2019-02-27T12:15:30.747Z,29.40
2019-02-27T12:18:01.804Z,29.33
2019-02-27T12:20:30.369Z,29.24
2019-02-27T12:22:59.230Z,29.30
2019-02-27T12:25:30.037Z,29.45
2019-02-27T12:27:58.512Z,29.25
2019-02-27T12:30:27.722Z,29.40
2019-02-27T12:32:57.042Z,29.37
2019-02-27T12:35:27.946Z,29.25
2019-02-27T12:37:56.790Z,29.09
2019-02-27T12:40:25.605Z,29.26
2019-02-27T12:42:54.596Z,28.94
2019-02-27T12:45:25.775Z,28.68
2019-02-27T12:47:54.871Z,28.41
2019-02-27T12:50:26.870Z,28.38
2019-02-27T12:52:54.863Z,28.43
2019-02-27T12:55:23.762Z,28.21
2019-02-27T12:57:53.089Z,28.35
2019-02-27T13:00:24.344Z,28.34
2019-02-27T13:02:53.311Z,27.69
2019-02-27T13:05:26.393Z,27.97
2019-02-27T13:07:53.284Z,27.86
2019-02-27T13:10:22.568Z,27.62
2019-02-27T13:12:51.923Z,27.70
2019-02-27T13:15:22.691Z,27.80
2019-02-27T13:17:56.278Z,27.91
2019-02-27T13:20:23.868Z,27.96
2019-02-27T13:22:52.964Z,28.19
2019-02-27T13:25:24.148Z,28.20
2019-02-27T13:27:52.457Z,28.25
2019-02-27T13:30:21.510Z,28.38
2019-02-27T13:32:50.445Z,28.49
2019-02-27T13:35:20.084Z,28.54
2019-02-27T13:37:50.052Z,28.61
2019-02-27T13:40:19.594Z,28.53
2019-02-27T13:42:52.388Z,28.52
2019-02-27T13:45:21.147Z,28.42
2019-02-27T13:47:50.109Z,28.44
2019-02-27T13:50:22.377Z,28.28
2019-02-27T13:52:50.673Z,28.28
2019-02-27T13:55:19.793Z,28.26
2019-02-27T13:57:48.857Z,28.37
2019-02-27T14:00:20.834Z,28.31
2019-02-27T14:02:50.675Z,28.46
2019-02-27T14:05:19.579Z,28.36
2019-02-27T14:07:48.542Z,28.34
2019-02-27T14:10:20.524Z,28.38
2019-02-27T14:12:48.256Z,28.26
2019-02-27T14:15:17.485Z,28.03
2019-02-27T14:17:46.486Z,28.26
2019-02-27T14:20:17.006Z,28.38
2019-02-27T14:22:45.846Z,28.44
2019-02-27T14:25:17.042Z,28.43
2019-02-27T14:27:47.557Z,28.50
2019-02-27T14:30:22.014Z,28.63
2019-02-27T14:32:51.038Z,28.69
2019-02-27T14:35:19.920Z,28.67
2019-02-27T14:37:50.158Z,28.77
2019-02-27T14:40:20.282Z,28.87
2019-02-27T14:42:54.012Z,28.87
2019-02-27T14:45:20.971Z,28.86
2019-02-27T14:47:49.815Z,28.94
2019-02-27T14:50:19.863Z,29.09
2019-02-27T14:52:50.019Z,29.22
2019-02-27T14:55:19.236Z,29.21
2019-02-27T14:57:51.092Z,29.29
2019-02-27T15:00:24.514Z,29.37
2019-02-27T15:02:55.628Z,29.44
2019-02-27T15:05:24.281Z,29.52
2019-02-27T15:07:54.890Z,29.60
2019-02-27T15:10:24.057Z,29.67
2019-02-27T15:12:55.096Z,29.74
2019-02-27T15:15:28.126Z,29.83
2019-02-27T15:17:57.157Z,29.90
2019-02-27T15:20:26.587Z,30.00
2019-02-27T15:22:55.569Z,30.05
2019-02-27T15:25:24.546Z,30.13
2019-02-27T15:27:58.378Z,30.21
2019-02-27T15:30:25.573Z,30.31
2019-02-27T15:32:54.529Z,30.35
2019-02-27T15:35:23.512Z,30.42
2019-02-27T15:37:52.442Z,30.52
2019-02-27T15:40:22.552Z,30.64
2019-02-27T15:42:51.470Z,30.76
2019-02-27T15:45:20.894Z,30.87
2019-02-27T15:47:49.754Z,31.04
2019-02-27T15:50:22.653Z,31.10
2019-02-27T15:52:50.672Z,31.26
2019-02-27T15:55:19.670Z,31.41
2019-02-27T15:57:52.050Z,31.49
2019-02-27T16:00:20.982Z,31.61
2019-02-27T16:02:49.813Z,31.74
2019-02-27T16:05:18.753Z,31.73
2019-02-27T16:07:49.436Z,32.11
2019-02-27T16:10:19.949Z,32.30
2019-02-27T16:12:48.878Z,32.29
2019-02-27T16:15:18.042Z,32.44
2019-02-27T16:17:47.276Z,32.60
2019-02-27T16:20:17.117Z,32.56
2019-02-27T16:22:46.027Z,32.71
2019-02-27T16:25:19.801Z,32.79
2019-02-27T16:27:47.611Z,32.75
2019-02-27T16:30:21.535Z,32.87
2019-02-27T16:32:50.518Z,32.85
2019-02-27T16:35:19.545Z,32.88
2019-02-27T16:37:48.900Z,32.86
2019-02-27T16:40:18.894Z,32.96
2019-02-27T16:42:48.194Z,33.18
2019-02-27T16:45:18.744Z,33.35
2019-02-27T16:47:47.620Z,33.25
2019-02-27T16:50:24.555Z,33.32
2019-02-27T16:52:51.951Z,33.29
2019-02-27T16:55:22.549Z,33.37
2019-02-27T16:57:56.563Z,33.46
2019-02-27T17:00:26.925Z,33.66
2019-02-27T17:02:57.074Z,33.54
2019-02-27T17:05:26.146Z,33.72
2019-02-27T17:08:00.324Z,33.65
2019-02-27T17:10:29.381Z,33.68
2019-02-27T17:12:58.746Z,33.74
2019-02-27T17:15:27.732Z,33.78
2019-02-27T17:17:56.858Z,33.75
2019-02-27T17:20:25.855Z,33.89
2019-02-27T17:22:54.758Z,33.99
2019-02-27T17:25:28.971Z,33.87
2019-02-27T17:27:54.917Z,33.72
2019-02-27T17:30:26.851Z,33.60
2019-02-27T17:32:55.746Z,33.45
2019-02-27T17:35:24.689Z,33.39
2019-02-27T17:37:53.744Z,33.27
2019-02-27T17:40:22.826Z,33.23
2019-02-27T17:42:53.571Z,33.21
2019-02-27T17:45:22.803Z,33.24
2019-02-27T17:47:51.742Z,33.22
2019-02-27T17:50:20.743Z,33.19
2019-02-27T17:52:49.829Z,33.24
2019-02-27T17:55:19.315Z,33.29
2019-02-27T17:57:48.265Z,33.55
2019-02-27T18:00:28.477Z,33.52
2019-02-27T18:02:57.817Z,33.47
2019-02-27T18:05:26.823Z,33.34
2019-02-27T18:07:55.836Z,33.32
2019-02-27T18:10:24.891Z,33.20
2019-02-27T18:12:54.004Z,33.14
2019-02-27T18:15:23.324Z,33.13
2019-02-27T18:17:52.624Z,33.07
2019-02-27T18:20:25.547Z,33.02
2019-02-27T18:22:52.768Z,32.90
2019-02-27T18:25:21.708Z,32.80
2019-02-27T18:27:50.778Z,32.61
2019-02-27T18:30:20.048Z,32.33
2019-02-27T18:32:49.469Z,32.06
2019-02-27T18:35:18.946Z,31.78
2019-02-27T18:37:53.384Z,31.56
2019-02-27T18:40:20.255Z,31.38
2019-02-27T18:42:55.190Z,31.20
2019-02-27T18:45:20.960Z,31.08
2019-02-27T18:47:50.619Z,30.92
2019-02-27T18:50:19.799Z,30.76
2019-02-27T18:52:50.152Z,30.66
2019-02-27T18:55:19.413Z,30.51
2019-02-27T18:57:48.511Z,30.43
2019-02-27T19:00:20.948Z,30.43
2019-02-27T19:02:53.202Z,30.43
2019-02-27T19:05:22.867Z,30.46
2019-02-27T19:07:55.009Z,30.47
2019-02-27T19:10:23.138Z,30.61
2019-02-27T19:12:52.230Z,30.66
2019-02-27T19:15:22.206Z,30.76
2019-02-27T19:17:51.732Z,30.87
2019-02-27T19:20:24.686Z,30.82
2019-02-27T19:22:55.046Z,30.99
2019-02-27T19:25:24.546Z,31.17
2019-02-27T19:27:54.957Z,31.26
2019-02-27T19:30:28.081Z,31.23
2019-02-27T19:33:01.577Z,30.97
2019-02-27T19:35:30.553Z,30.76
2019-02-27T19:38:00.701Z,30.21
2019-02-27T19:40:31.345Z,30.16
2019-02-27T19:43:02.682Z,30.08
2019-02-27T19:45:35.900Z,30.01
2019-02-27T19:48:04.692Z,29.99
2019-02-27T19:50:35.078Z,30.01
2019-02-27T19:53:06.909Z,30.03
2019-02-27T19:55:36.529Z,29.95
2019-02-27T19:58:08.019Z,29.96
2019-02-27T20:00:47.635Z,29.73
2019-02-27T20:03:10.055Z,29.87
2019-02-27T20:05:40.264Z,30.06
2019-02-27T20:08:11.087Z,30.10
2019-02-27T20:10:40.515Z,30.14
2019-02-27T20:13:10.759Z,30.16
2019-02-27T20:15:42.780Z,30.23
2019-02-27T20:18:12.579Z,30.27
2019-02-27T20:20:43.037Z,30.28
2019-02-27T20:23:13.241Z,30.31
2019-02-27T20:25:44.566Z,30.33
2019-02-27T20:28:14.800Z,30.41
2019-02-27T20:30:47.126Z,30.47
2019-02-27T20:33:17.555Z,30.61
2019-02-27T20:35:47.966Z,30.63
2019-02-27T20:38:18.312Z,30.74
2019-02-27T20:40:49.130Z,30.81
2019-02-27T20:43:19.347Z,30.88
2019-02-27T20:45:49.492Z,30.87
2019-02-27T20:48:19.436Z,30.90
2019-02-27T20:50:49.839Z,30.94
2019-02-27T20:53:20.966Z,31.11
2019-02-27T20:55:52.021Z,30.99
2019-02-27T20:58:22.245Z,30.78
2019-02-27T21:00:52.707Z,30.67
2019-02-27T21:03:26.758Z,30.54
2019-02-27T21:05:53.761Z,30.47
2019-02-27T21:08:23.286Z,30.38
2019-02-27T21:10:55.304Z,30.42
2019-02-27T21:13:23.136Z,30.45
2019-02-27T21:15:52.415Z,30.43
2019-02-27T21:18:21.840Z,30.46
2019-02-27T21:20:51.196Z,30.45
2019-02-27T21:23:20.751Z,30.35
2019-02-27T21:25:50.531Z,30.36
2019-02-27T21:28:21.129Z,30.34
2019-02-27T21:30:52.296Z,30.35
2019-02-27T21:33:22.897Z,30.37
2019-02-27T21:35:52.458Z,30.41
2019-02-27T21:38:24.705Z,30.54
2019-02-27T21:40:54.362Z,30.74
2019-02-27T21:43:25.597Z,30.74
2019-02-27T21:45:54.993Z,30.70
2019-02-27T21:48:26.873Z,30.72
2019-02-27T21:50:55.144Z,30.90
2019-02-27T21:53:26.148Z,31.01
2019-02-27T21:55:54.871Z,31.07
2019-02-27T21:58:23.846Z,31.07
2019-02-27T22:00:52.679Z,31.16
2019-02-27T22:03:21.706Z,31.28
2019-02-27T22:05:52.975Z,31.30
2019-02-27T22:08:21.562Z,31.34
2019-02-27T22:10:53.545Z,31.42
2019-02-27T22:13:28.960Z,31.47
2019-02-27T22:15:55.877Z,31.54
2019-02-27T22:18:23.210Z,31.58
2019-02-27T22:20:52.050Z,31.68
2019-02-27T22:23:20.981Z,31.44
2019-02-27T22:25:49.914Z,31.56
2019-02-27T22:28:20.114Z,31.57
2019-02-27T22:30:49.716Z,31.78
2019-02-27T22:33:22.005Z,31.85
2019-02-27T22:35:49.350Z,31.95
2019-02-27T22:38:18.136Z,32.05
2019-02-27T22:40:47.035Z,32.09
2019-02-27T22:43:16.105Z,32.13
2019-02-27T22:45:44.942Z,32.19
2019-02-27T22:48:13.835Z,32.24
2019-02-27T22:50:42.733Z,32.28
2019-02-27T22:53:11.641Z,32.34
2019-02-27T22:55:42.164Z,32.39
2019-02-27T22:58:11.148Z,32.43
2019-02-27T23:01:09.765Z,32.49
2019-02-27T23:03:42.016Z,32.53
2019-02-27T23:06:12.245Z,32.61
2019-02-27T23:08:41.626Z,32.67
2019-02-27T23:11:10.515Z,32.71
2019-02-27T23:13:39.347Z,32.77
2019-02-27T23:16:08.194Z,32.80
2019-02-27T23:18:37.434Z,32.83
2019-02-27T23:21:07.624Z,32.90
2019-02-27T23:23:36.741Z,32.93
2019-02-27T23:26:06.282Z,32.98
2019-02-27T23:28:35.463Z,33.04
2019-02-27T23:31:04.388Z,33.09
2019-02-27T23:33:35.905Z,33.14
2019-02-27T23:36:03.888Z,33.16
2019-02-27T23:38:34.716Z,33.20
2019-02-27T23:41:03.512Z,33.24
2019-02-27T23:43:34.004Z,33.29
2019-02-27T23:46:03.097Z,33.33
2019-02-27T23:48:35.902Z,33.37
2019-02-27T23:51:02.690Z,33.41
2019-02-27T23:53:31.611Z,33.43
2019-02-27T23:56:00.553Z,33.44
2019-02-27T23:58:30.334Z,33.47
